VIE weather

Vienna International Airport
Vienna, Vienna, Austria

Public forecast

Using degrees Celsius for public forecast. Weather courtesy of forecast.io.

METAR (pilot weather report)

Retrieved 2017/06/27 03:20 UTC (0 seconds ago):

LOWW 270320Z VRB01KT CAVOK 18/16 Q1010 BECMG FM0500 16010KT

TAF (pilot weather forecast)

Forecast is more than 12 hours old.

Retrieved 2017/06/26 00:20 UTC (1 day ago):

TAF LOWW 262315Z 2700/2806 16005KT CAVOK TX32/2714Z TN18/2703Z BECMG 2706/2708 16013KT TEMPO 2712/2724 17020KT 9999 FEW070CB SCT350 PROB30 TEMPO 2718/2722 22020G35KT 6000 TSRA FEW060CB BKN070